sensor_id;sensor_type;location;lat;lon;timestamp;pressure;altitude;pressure_sealevel;temperature;humidity
19777;BME280;10047;42.490;26.012;2023-06-22T00:01:49;101645.53;;;21.59;100.00
19777;BME280;10047;42.490;26.012;2023-06-22T00:04:14;101658.44;;;21.61;100.00
19777;BME280;10047;42.490;26.012;2023-06-22T00:06:40;101653.53;;;21.36;100.00
19777;BME280;10047;42.490;26.012;2023-06-22T00:09:05;101661.59;;;21.48;100.00
19777;BME280;10047;42.490;26.012;2023-06-22T00:11:33;101690.31;;;21.61;100.00
19777;BME280;10047;42.490;26.012;2023-06-22T00:13:59;101702.44;;;21.61;100.00
19777;BME280;10047;42.490;26.012;2023-06-22T00:16:24;101704.16;;;21.23;100.00
19777;BME280;10047;42.490;26.012;2023-06-22T00:18:50;101697.59;;;21.34;100.00
19777;BME280;10047;42.490;26.012;2023-06-22T00:21:15;101647.78;;;21.11;100.00
19777;BME280;10047;42.490;26.012;2023-06-22T00:23:41;101721.75;;;21.35;100.00
19777;BME280;10047;42.490;26.012;2023-06-22T00:26:07;101734.22;;;21.64;100.00
19777;BME280;10047;42.490;26.012;2023-06-22T00:28:32;101728.31;;;21.42;100.00
19777;BME280;10047;42.490;26.012;2023-06-22T00:30:57;101741.25;;;21.42;100.00
19777;BME280;10047;42.490;26.012;2023-06-22T00:33:23;101736.72;;;21.47;100.00
19777;BME280;10047;42.490;26.012;2023-06-22T00:35:48;101638.13;;;20.76;100.00
19777;BME280;10047;42.490;26.012;2023-06-22T00:38:17;101690.31;;;21.05;100.00
19777;BME280;10047;42.490;26.012;2023-06-22T00:40:43;101739.50;;;21.04;100.00
19777;BME280;10047;42.490;26.012;2023-06-22T00:43:09;101735.09;;;21.06;100.00
19777;BME280;10047;42.490;26.012;2023-06-22T00:45:34;101725.75;;;21.22;100.00
19777;BME280;10047;42.490;26.012;2023-06-22T00:48:00;101707.91;;;20.96;100.00
19777;BME280;10047;42.490;26.012;2023-06-22T00:50:28;101670.44;;;20.65;100.00
19777;BME280;10047;42.490;26.012;2023-06-22T00:53:00;101734.06;;;21.10;100.00
19777;BME280;10047;42.490;26.012;2023-06-22T00:55:26;101751.84;;;20.97;100.00
19777;BME280;10047;42.490;26.012;2023-06-22T00:57:52;101655.31;;;20.36;100.00
19777;BME280;10047;42.490;26.012;2023-06-22T01:00:23;101692.31;;;20.37;100.00
19777;BME280;10047;42.490;26.012;2023-06-22T01:02:50;101737.16;;;20.78;100.00
19777;BME280;10047;42.490;26.012;2023-06-22T01:05:18;101744.19;;;20.74;100.00
19777;BME280;10047;42.490;26.012;2023-06-22T01:13:07;101712.25;;;20.55;100.00
19777;BME280;10047;42.490;26.012;2023-06-22T01:15:53;101706.31;;;20.53;100.00
19777;BME280;10047;42.490;26.012;2023-06-22T01:18:22;101777.75;;;20.76;100.00
19777;BME280;10047;42.490;26.012;2023-06-22T01:20:55;101774.19;;;20.98;100.00
19777;BME280;10047;42.490;26.012;2023-06-22T01:26:16;101779.78;;;21.29;100.00
19777;BME280;10047;42.490;26.012;2023-06-22T01:28:49;101716.91;;;20.67;100.00
19777;BME280;10047;42.490;26.012;2023-06-22T01:31:18;101771.06;;;20.92;100.00
19777;BME280;10047;42.490;26.012;2023-06-22T01:33:48;101786.22;;;20.79;100.00
19777;BME280;10047;42.490;26.012;2023-06-22T01:36:16;101672.75;;;20.31;100.00
19777;BME280;10047;42.490;26.012;2023-06-22T01:38:43;101733.22;;;20.69;100.00
19777;BME280;10047;42.490;26.012;2023-06-22T01:41:10;101735.00;;;20.67;100.00
19777;BME280;10047;42.490;26.012;2023-06-22T01:43:36;101767.56;;;21.13;100.00
19777;BME280;10047;42.490;26.012;2023-06-22T01:46:02;101785.31;;;21.00;100.00
19777;BME280;10047;42.490;26.012;2023-06-22T01:48:28;101770.72;;;20.99;100.00
19777;BME280;10047;42.490;26.012;2023-06-22T01:50:54;101706.91;;;20.80;100.00
19777;BME280;10047;42.490;26.012;2023-06-22T01:53:23;101681.91;;;20.60;100.00
19777;BME280;10047;42.490;26.012;2023-06-22T01:55:49;101739.09;;;20.93;100.00
19777;BME280;10047;42.490;26.012;2023-06-22T01:58:15;101790.34;;;21.25;100.00
19777;BME280;10047;42.490;26.012;2023-06-22T02:00:45;101748.41;;;20.97;100.00
19777;BME280;10047;42.490;26.012;2023-06-22T02:03:18;101791.91;;;21.29;100.00
19777;BME280;10047;42.490;26.012;2023-06-22T02:06:11;101802.00;;;21.15;100.00
19777;BME280;10047;42.490;26.012;2023-06-22T02:08:35;101691.25;;;20.83;100.00
19777;BME280;10047;42.490;26.012;2023-06-22T02:11:02;101716.41;;;20.79;100.00
19777;BME280;10047;42.490;26.012;2023-06-22T02:13:29;101800.97;;;21.37;100.00
19777;BME280;10047;42.490;26.012;2023-06-22T02:15:56;101747.56;;;21.16;100.00
19777;BME280;10047;42.490;26.012;2023-06-22T02:18:21;101788.91;;;21.18;100.00
19777;BME280;10047;42.490;26.012;2023-06-22T02:20:46;101796.31;;;21.45;100.00
19777;BME280;10047;42.490;26.012;2023-06-22T02:23:12;101783.69;;;21.58;100.00
19777;BME280;10047;42.490;26.012;2023-06-22T02:25:37;101784.06;;;21.30;100.00
19777;BME280;10047;42.490;26.012;2023-06-22T02:28:03;101794.22;;;21.35;100.00
19777;BME280;10047;42.490;26.012;2023-06-22T02:30:29;101737.81;;;21.03;100.00
19777;BME280;10047;42.490;26.012;2023-06-22T02:32:54;101697.00;;;20.69;100.00
19777;BME280;10047;42.490;26.012;2023-06-22T02:35:27;101766.97;;;21.26;100.00
19777;BME280;10047;42.490;26.012;2023-06-22T02:37:59;101791.63;;;21.35;100.00
19777;BME280;10047;42.490;26.012;2023-06-22T02:40:26;101802.00;;;21.15;100.00
19777;BME280;10047;42.490;26.012;2023-06-22T02:42:51;101742.84;;;20.65;100.00
19777;BME280;10047;42.490;26.012;2023-06-22T02:45:16;101817.78;;;21.09;100.00
19777;BME280;10047;42.490;26.012;2023-06-22T02:47:42;101757.00;;;20.77;100.00
19777;BME280;10047;42.490;26.012;2023-06-22T02:50:08;101756.28;;;20.73;100.00
19777;BME280;10047;42.490;26.012;2023-06-22T02:52:34;101752.25;;;20.66;100.00
19777;BME280;10047;42.490;26.012;2023-06-22T02:54:59;101812.59;;;21.09;100.00
19777;BME280;10047;42.490;26.012;2023-06-22T02:57:25;101813.28;;;20.70;100.00
19777;BME280;10047;42.490;26.012;2023-06-22T02:59:50;101826.09;;;20.73;100.00
19777;BME280;10047;42.490;26.012;2023-06-22T03:02:15;101754.44;;;20.12;100.00
19777;BME280;10047;42.490;26.012;2023-06-22T03:04:41;101811.88;;;20.63;100.00
19777;BME280;10047;42.490;26.012;2023-06-22T03:07:07;101835.16;;;20.62;100.00
19777;BME280;10047;42.490;26.012;2023-06-22T03:09:33;101703.94;;;19.37;100.00
19777;BME280;10047;42.490;26.012;2023-06-22T03:11:58;101799.06;;;19.94;100.00
19777;BME280;10047;42.490;26.012;2023-06-22T03:14:23;101865.69;;;20.31;100.00
19777;BME280;10047;42.490;26.012;2023-06-22T03:16:49;101859.56;;;20.33;100.00
19777;BME280;10047;42.490;26.012;2023-06-22T03:19:14;101876.16;;;20.28;100.00
19777;BME280;10047;42.490;26.012;2023-06-22T03:21:40;101850.97;;;20.10;100.00
19777;BME280;10047;42.490;26.012;2023-06-22T03:24:06;101822.41;;;20.14;100.00
19777;BME280;10047;42.490;26.012;2023-06-22T03:26:32;101888.44;;;20.66;100.00
19777;BME280;10047;42.490;26.012;2023-06-22T03:28:57;101786.25;;;19.91;100.00
19777;BME280;10047;42.490;26.012;2023-06-22T03:31:23;101897.09;;;20.43;100.00
19777;BME280;10047;42.490;26.012;2023-06-22T03:33:49;101819.28;;;20.05;100.00
19777;BME280;10047;42.490;26.012;2023-06-22T03:36:16;101874.34;;;20.30;100.00
19777;BME280;10047;42.490;26.012;2023-06-22T03:38:48;101773.34;;;19.68;100.00
19777;BME280;10047;42.490;26.012;2023-06-22T03:41:13;101861.75;;;20.44;100.00
19777;BME280;10047;42.490;26.012;2023-06-22T03:43:39;101831.38;;;20.27;100.00
19777;BME280;10047;42.490;26.012;2023-06-22T03:46:05;101878.09;;;20.66;100.00
19777;BME280;10047;42.490;26.012;2023-06-22T03:48:30;101850.56;;;20.65;100.00
19777;BME280;10047;42.490;26.012;2023-06-22T03:50:55;101863.09;;;20.54;100.00
19777;BME280;10047;42.490;26.012;2023-06-22T03:53:21;101884.72;;;20.73;100.00
19777;BME280;10047;42.490;26.012;2023-06-22T03:55:53;101886.75;;;20.87;100.00
19777;BME280;10047;42.490;26.012;2023-06-22T03:58:19;101883.41;;;21.06;100.00
19777;BME280;10047;42.490;26.012;2023-06-22T04:00:52;101794.50;;;20.87;100.00
19777;BME280;10047;42.490;26.012;2023-06-22T04:03:18;101824.41;;;21.54;100.00
19777;BME280;10047;42.490;26.012;2023-06-22T04:05:46;101774.94;;;21.22;100.00
19777;BME280;10047;42.490;26.012;2023-06-22T04:08:12;101887.69;;;21.88;100.00
19777;BME280;10047;42.490;26.012;2023-06-22T04:10:38;101910.94;;;22.28;100.00
19777;BME280;10047;42.490;26.012;2023-06-22T04:13:03;101887.94;;;22.39;100.00
19777;BME280;10047;42.490;26.012;2023-06-22T04:15:29;101879.56;;;22.88;100.00
19777;BME280;10047;42.490;26.012;2023-06-22T04:17:55;101793.81;;;22.01;100.00
19777;BME280;10047;42.490;26.012;2023-06-22T04:20:21;101831.47;;;22.27;100.00
19777;BME280;10047;42.490;26.012;2023-06-22T04:22:47;101899.72;;;22.27;100.00
19777;BME280;10047;42.490;26.012;2023-06-22T04:25:12;101894.59;;;22.07;100.00
19777;BME280;10047;42.490;26.012;2023-06-22T04:27:38;101815.75;;;21.94;100.00
19777;BME280;10047;42.490;26.012;2023-06-22T04:30:06;101811.25;;;22.16;100.00
19777;BME280;10047;42.490;26.012;2023-06-22T04:32:35;101877.16;;;22.67;100.00
19777;BME280;10047;42.490;26.012;2023-06-22T04:35:05;101888.97;;;23.25;100.00
19777;BME280;10047;42.490;26.012;2023-06-22T04:37:31;101836.50;;;22.67;100.00
19777;BME280;10047;42.490;26.012;2023-06-22T04:39:57;101855.34;;;22.88;100.00
19777;BME280;10047;42.490;26.012;2023-06-22T04:42:22;101890.66;;;23.09;100.00
19777;BME280;10047;42.490;26.012;2023-06-22T04:44:48;101835.13;;;22.77;100.00
19777;BME280;10047;42.490;26.012;2023-06-22T04:47:13;101895.38;;;23.18;100.00
19777;BME280;10047;42.490;26.012;2023-06-22T04:49:39;101869.72;;;23.12;100.00
19777;BME280;10047;42.490;26.012;2023-06-22T04:52:08;101911.06;;;23.34;100.00
19777;BME280;10047;42.490;26.012;2023-06-22T04:54:35;101835.50;;;22.70;100.00
19777;BME280;10047;42.490;26.012;2023-06-22T04:57:02;101916.94;;;23.54;100.00
19777;BME280;10047;42.490;26.012;2023-06-22T04:59:30;101867.41;;;23.06;100.00
19777;BME280;10047;42.490;26.012;2023-06-22T05:04:22;101809.81;;;22.99;100.00
19777;BME280;10047;42.490;26.012;2023-06-22T05:06:51;101827.69;;;23.05;100.00
19777;BME280;10047;42.490;26.012;2023-06-22T05:09:16;101837.84;;;22.74;100.00
19777;BME280;10047;42.490;26.012;2023-06-22T05:11:42;101876.94;;;22.88;100.00
19777;BME280;10047;42.490;26.012;2023-06-22T05:14:08;101873.38;;;22.91;100.00
19777;BME280;10047;42.490;26.012;2023-06-22T05:16:33;101929.75;;;23.57;100.00
19777;BME280;10047;42.490;26.012;2023-06-22T05:19:00;101923.81;;;23.72;100.00
19777;BME280;10047;42.490;26.012;2023-06-22T05:21:28;101942.91;;;24.21;100.00
19777;BME280;10047;42.490;26.012;2023-06-22T05:23:54;101949.16;;;24.65;100.00
19777;BME280;10047;42.490;26.012;2023-06-22T05:26:21;101944.13;;;24.93;100.00
19777;BME280;10047;42.490;26.012;2023-06-22T05:28:47;101870.69;;;24.42;100.00
19777;BME280;10047;42.490;26.012;2023-06-22T05:31:14;101899.47;;;24.85;100.00
19777;BME280;10047;42.490;26.012;2023-06-22T05:33:43;101903.50;;;24.60;100.00
19777;BME280;10047;42.490;26.012;2023-06-22T05:36:09;101879.66;;;24.83;100.00
19777;BME280;10047;42.490;26.012;2023-06-22T05:38:36;101865.41;;;24.43;100.00
19777;BME280;10047;42.490;26.012;2023-06-22T05:41:01;101879.88;;;24.94;100.00
19777;BME280;10047;42.490;26.012;2023-06-22T05:43:27;101868.50;;;25.11;100.00
19777;BME280;10047;42.490;26.012;2023-06-22T05:45:53;101854.56;;;25.41;100.00
19777;BME280;10047;42.490;26.012;2023-06-22T05:48:18;101862.44;;;25.40;100.00
19777;BME280;10047;42.490;26.012;2023-06-22T05:50:44;101874.28;;;25.73;100.00
19777;BME280;10047;42.490;26.012;2023-06-22T05:53:09;101856.22;;;25.42;100.00
19777;BME280;10047;42.490;26.012;2023-06-22T05:55:35;101841.91;;;25.20;100.00
19777;BME280;10047;42.490;26.012;2023-06-22T05:58:00;101795.19;;;25.46;100.00
19777;BME280;10047;42.490;26.012;2023-06-22T06:00:25;101818.31;;;25.93;100.00
19777;BME280;10047;42.490;26.012;2023-06-22T06:02:51;101816.81;;;26.17;100.00
19777;BME280;10047;42.490;26.012;2023-06-22T06:05:16;101756.69;;;25.78;100.00
19777;BME280;10047;42.490;26.012;2023-06-22T06:07:42;101754.91;;;26.07;100.00
19777;BME280;10047;42.490;26.012;2023-06-22T06:10:09;101802.63;;;26.75;100.00
19777;BME280;10047;42.490;26.012;2023-06-22T06:12:34;101743.06;;;26.67;100.00
19777;BME280;10047;42.490;26.012;2023-06-22T06:15:01;101696.13;;;26.28;100.00
19777;BME280;10047;42.490;26.012;2023-06-22T06:17:26;101721.72;;;26.09;100.00
19777;BME280;10047;42.490;26.012;2023-06-22T06:19:52;101736.44;;;26.36;100.00
19777;BME280;10047;42.490;26.012;2023-06-22T06:22:18;101715.03;;;26.44;100.00
19777;BME280;10047;42.490;26.012;2023-06-22T06:24:45;101660.91;;;26.08;100.00
19777;BME280;10047;42.490;26.012;2023-06-22T06:27:11;101701.75;;;26.99;100.00
19777;BME280;10047;42.490;26.012;2023-06-22T06:29:36;101681.78;;;26.60;100.00
19777;BME280;10047;42.490;26.012;2023-06-22T06:32:01;101588.28;;;26.15;100.00
19777;BME280;10047;42.490;26.012;2023-06-22T06:34:28;101657.22;;;26.50;100.00
19777;BME280;10047;42.490;26.012;2023-06-22T06:36:54;101562.09;;;26.92;100.00
19777;BME280;10047;42.490;26.012;2023-06-22T06:39:19;101569.88;;;27.04;100.00
19777;BME280;10047;42.490;26.012;2023-06-22T06:41:45;101493.84;;;26.96;100.00
19777;BME280;10047;42.490;26.012;2023-06-22T06:44:11;101544.44;;;28.01;100.00
19777;BME280;10047;42.490;26.012;2023-06-22T06:46:36;101411.81;;;27.57;100.00
19777;BME280;10047;42.490;26.012;2023-06-22T06:49:03;101493.94;;;28.22;100.00
19777;BME280;10047;42.490;26.012;2023-06-22T06:51:28;101442.72;;;27.63;100.00
19777;BME280;10047;42.490;26.012;2023-06-22T06:53:53;101360.50;;;27.67;100.00
19777;BME280;10047;42.490;26.012;2023-06-22T06:56:20;101384.59;;;27.49;100.00
19777;BME280;10047;42.490;26.012;2023-06-22T06:58:46;101412.53;;;27.70;100.00
19777;BME280;10047;42.490;26.012;2023-06-22T07:01:12;101336.81;;;28.13;100.00
19777;BME280;10047;42.490;26.012;2023-06-22T07:03:38;101325.06;;;28.61;100.00
19777;BME280;10047;42.490;26.012;2023-06-22T07:06:03;101315.69;;;28.79;100.00
19777;BME280;10047;42.490;26.012;2023-06-22T07:08:29;101283.50;;;28.68;100.00
19777;BME280;10047;42.490;26.012;2023-06-22T07:10:54;101276.28;;;28.60;100.00
19777;BME280;10047;42.490;26.012;2023-06-22T07:13:20;101241.78;;;28.76;100.00
19777;BME280;10047;42.490;26.012;2023-06-22T07:15:45;101219.53;;;28.50;100.00
19777;BME280;10047;42.490;26.012;2023-06-22T07:18:11;101145.38;;;29.00;100.00
19777;BME280;10047;42.490;26.012;2023-06-22T07:20:36;100954.47;;;28.27;100.00
19777;BME280;10047;42.490;26.012;2023-06-22T07:23:02;100764.84;;;28.88;100.00
19777;BME280;10047;42.490;26.012;2023-06-22T07:25:28;100495.78;;;29.18;100.00
19777;BME280;10047;42.490;26.012;2023-06-22T07:28:02;100034.22;;;28.96;100.00
19777;BME280;10047;42.490;26.012;2023-06-22T07:30:29;99999.97;;;29.24;100.00
19777;BME280;10047;42.490;26.012;2023-06-22T07:32:54;99619.75;;;29.19;100.00
19777;BME280;10047;42.490;26.012;2023-06-22T07:35:20;99281.25;;;29.31;100.00
19777;BME280;10047;42.490;26.012;2023-06-22T07:37:45;99226.78;;;28.89;100.00
19777;BME280;10047;42.490;26.012;2023-06-22T07:40:11;99195.56;;;29.32;100.00
19777;BME280;10047;42.490;26.012;2023-06-22T07:42:37;99111.91;;;29.45;100.00
19777;BME280;10047;42.490;26.012;2023-06-22T07:45:27;99084.94;;;30.08;100.00
19777;BME280;10047;42.490;26.012;2023-06-22T07:47:53;98749.59;;;29.02;100.00
19777;BME280;10047;42.490;26.012;2023-06-22T07:50:18;98503.66;;;29.35;100.00
19777;BME280;10047;42.490;26.012;2023-06-22T07:52:44;98339.97;;;28.78;100.00
19777;BME280;10047;42.490;26.012;2023-06-22T07:55:09;97274.81;;;30.07;100.00
19777;BME280;10047;42.490;26.012;2023-06-22T07:57:34;97419.44;;;30.50;100.00
19777;BME280;10047;42.490;26.012;2023-06-22T08:00:02;97583.25;;;30.02;100.00
19777;BME280;10047;42.490;26.012;2023-06-22T08:02:48;97385.16;;;30.68;100.00
19777;BME280;10047;42.490;26.012;2023-06-22T08:05:15;97134.63;;;30.10;100.00
19777;BME280;10047;42.490;26.012;2023-06-22T08:07:40;97005.22;;;29.99;100.00
19777;BME280;10047;42.490;26.012;2023-06-22T08:10:10;96834.84;;;29.77;100.00
19777;BME280;10047;42.490;26.012;2023-06-22T08:12:36;97039.22;;;29.66;100.00
19777;BME280;10047;42.490;26.012;2023-06-22T08:15:02;97142.63;;;30.31;100.00
19777;BME280;10047;42.490;26.012;2023-06-22T08:17:49;97206.41;;;30.82;100.00
19777;BME280;10047;42.490;26.012;2023-06-22T08:20:17;97161.88;;;30.53;100.00
19777;BME280;10047;42.490;26.012;2023-06-22T08:22:43;97301.78;;;30.42;100.00
19777;BME280;10047;42.490;26.012;2023-06-22T08:25:09;97242.03;;;30.33;100.00
19777;BME280;10047;42.490;26.012;2023-06-22T08:27:35;97171.34;;;30.88;100.00
19777;BME280;10047;42.490;26.012;2023-06-22T08:30:01;97059.75;;;31.50;100.00
19777;BME280;10047;42.490;26.012;2023-06-22T08:32:27;97041.47;;;31.12;100.00
19777;BME280;10047;42.490;26.012;2023-06-22T08:34:54;96969.91;;;31.00;100.00
19777;BME280;10047;42.490;26.012;2023-06-22T08:37:20;97110.06;;;31.85;100.00
19777;BME280;10047;42.490;26.012;2023-06-22T08:39:46;97290.59;;;31.80;100.00
19777;BME280;10047;42.490;26.012;2023-06-22T08:42:12;97589.53;;;31.68;100.00
19777;BME280;10047;42.490;26.012;2023-06-22T08:44:37;97887.03;;;31.65;100.00
19777;BME280;10047;42.490;26.012;2023-06-22T08:47:03;98286.53;;;31.04;100.00
19777;BME280;10047;42.490;26.012;2023-06-22T08:49:34;98643.09;;;31.15;100.00
19777;BME280;10047;42.490;26.012;2023-06-22T08:51:59;98798.50;;;31.12;100.00
19777;BME280;10047;42.490;26.012;2023-06-22T08:54:24;99059.56;;;31.58;100.00
19777;BME280;10047;42.490;26.012;2023-06-22T08:56:50;99626.63;;;31.36;100.00
19777;BME280;10047;42.490;26.012;2023-06-22T08:59:15;100160.09;;;31.46;100.00
19777;BME280;10047;42.490;26.012;2023-06-22T09:01:41;100184.19;;;31.57;100.00
19777;BME280;10047;42.490;26.012;2023-06-22T09:04:13;100085.13;;;30.72;100.00
19777;BME280;10047;42.490;26.012;2023-06-22T09:06:39;100119.41;;;31.26;100.00
19777;BME280;10047;42.490;26.012;2023-06-22T09:09:10;99975.16;;;31.31;100.00
19777;BME280;10047;42.490;26.012;2023-06-22T09:11:35;99809.38;;;31.32;100.00
19777;BME280;10047;42.490;26.012;2023-06-22T09:14:00;99704.78;;;31.42;100.00
19777;BME280;10047;42.490;26.012;2023-06-22T09:16:26;99719.75;;;32.07;100.00
19777;BME280;10047;42.490;26.012;2023-06-22T09:18:51;99967.44;;;31.52;100.00
19777;BME280;10047;42.490;26.012;2023-06-22T09:21:17;99998.72;;;31.84;100.00
19777;BME280;10047;42.490;26.012;2023-06-22T09:23:42;100105.22;;;30.25;100.00
19777;BME280;10047;42.490;26.012;2023-06-22T09:26:08;100151.59;;;32.20;100.00
19777;BME280;10047;42.490;26.012;2023-06-22T09:28:34;100223.59;;;32.04;100.00
19777;BME280;10047;42.490;26.012;2023-06-22T09:30:59;100338.16;;;31.84;100.00
19777;BME280;10047;42.490;26.012;2023-06-22T09:33:26;100326.78;;;32.30;100.00
19777;BME280;10047;42.490;26.012;2023-06-22T09:35:52;100416.41;;;32.37;100.00
19777;BME280;10047;42.490;26.012;2023-06-22T09:38:17;100406.97;;;31.33;100.00
19777;BME280;10047;42.490;26.012;2023-06-22T09:40:42;100403.94;;;30.71;100.00
19777;BME280;10047;42.490;26.012;2023-06-22T09:43:08;100378.06;;;30.01;100.00
19777;BME280;10047;42.490;26.012;2023-06-22T09:45:33;100476.00;;;30.35;100.00
19777;BME280;10047;42.490;26.012;2023-06-22T09:47:59;100490.84;;;30.19;100.00
19777;BME280;10047;42.490;26.012;2023-06-22T09:50:24;100465.63;;;30.59;100.00
19777;BME280;10047;42.490;26.012;2023-06-22T09:52:50;100532.06;;;31.51;100.00
19777;BME280;10047;42.490;26.012;2023-06-22T09:55:22;100584.81;;;31.58;100.00
19777;BME280;10047;42.490;26.012;2023-06-22T09:57:48;100563.75;;;30.84;100.00
19777;BME280;10047;42.490;26.012;2023-06-22T10:00:16;100569.38;;;31.55;100.00
19777;BME280;10047;42.490;26.012;2023-06-22T10:02:42;100580.56;;;31.57;100.00
19777;BME280;10047;42.490;26.012;2023-06-22T10:05:08;100610.31;;;31.74;100.00
19777;BME280;10047;42.490;26.012;2023-06-22T10:07:33;100650.38;;;30.76;100.00
19777;BME280;10047;42.490;26.012;2023-06-22T10:09:59;100674.53;;;30.79;100.00
19777;BME280;10047;42.490;26.012;2023-06-22T10:12:26;100641.63;;;30.24;100.00
19777;BME280;10047;42.490;26.012;2023-06-22T10:14:52;100690.94;;;30.30;100.00
19777;BME280;10047;42.490;26.012;2023-06-22T10:17:18;100693.78;;;30.62;100.00
19777;BME280;10047;42.490;26.012;2023-06-22T10:19:43;100695.22;;;30.83;100.00
19777;BME280;10047;42.490;26.012;2023-06-22T10:22:08;100697.34;;;31.05;100.00
19777;BME280;10047;42.490;26.012;2023-06-22T10:24:34;100626.63;;;32.17;100.00
19777;BME280;10047;42.490;26.012;2023-06-22T10:26:59;100693.63;;;32.55;100.00
19777;BME280;10047;42.490;26.012;2023-06-22T10:29:25;100630.56;;;32.62;100.00
19777;BME280;10047;42.490;26.012;2023-06-22T10:31:50;100636.19;;;32.26;100.00
19777;BME280;10047;42.490;26.012;2023-06-22T10:34:15;100648.91;;;31.41;100.00
19777;BME280;10047;42.490;26.012;2023-06-22T10:36:42;100662.78;;;30.66;100.00
19777;BME280;10047;42.490;26.012;2023-06-22T10:39:08;100718.50;;;30.52;100.00
19777;BME280;10047;42.490;26.012;2023-06-22T10:41:34;100665.38;;;31.17;100.00
19777;BME280;10047;42.490;26.012;2023-06-22T10:44:00;100704.28;;;31.06;100.00
19777;BME280;10047;42.490;26.012;2023-06-22T10:46:25;100646.19;;;30.65;100.00
19777;BME280;10047;42.490;26.012;2023-06-22T10:48:51;100646.00;;;30.85;100.00
19777;BME280;10047;42.490;26.012;2023-06-22T10:51:19;100681.78;;;31.45;100.00
19777;BME280;10047;42.490;26.012;2023-06-22T10:53:45;100641.25;;;31.22;100.00
19777;BME280;10047;42.490;26.012;2023-06-22T10:56:10;100615.47;;;31.25;100.00
19777;BME280;10047;42.490;26.012;2023-06-22T10:58:35;100624.13;;;31.10;100.00
19777;BME280;10047;42.490;26.012;2023-06-22T11:01:01;100631.28;;;30.66;100.00
19777;BME280;10047;42.490;26.012;2023-06-22T11:03:28;100643.25;;;30.94;100.00
19777;BME280;10047;42.490;26.012;2023-06-22T11:05:53;100683.53;;;30.51;100.00
19777;BME280;10047;42.490;26.012;2023-06-22T11:08:18;100608.00;;;30.45;100.00
19777;BME280;10047;42.490;26.012;2023-06-22T11:10:44;100615.72;;;31.56;100.00
19777;BME280;10047;42.490;26.012;2023-06-22T11:13:09;100576.78;;;31.51;100.00
19777;BME280;10047;42.490;26.012;2023-06-22T11:15:36;100580.56;;;31.89;100.00
19777;BME280;10047;42.490;26.012;2023-06-22T11:18:01;100641.59;;;32.33;100.00
19777;BME280;10047;42.490;26.012;2023-06-22T11:20:27;100594.75;;;31.96;100.00
19777;BME280;10047;42.490;26.012;2023-06-22T11:22:52;100626.34;;;32.91;100.00
19777;BME280;10047;42.490;26.012;2023-06-22T11:25:17;100589.78;;;31.93;100.00
19777;BME280;10047;42.490;26.012;2023-06-22T11:27:43;100630.91;;;32.42;100.00
19777;BME280;10047;42.490;26.012;2023-06-22T11:30:09;100616.69;;;33.22;100.00
19777;BME280;10047;42.490;26.012;2023-06-22T11:32:34;100600.88;;;33.53;100.00
19777;BME280;10047;42.490;26.012;2023-06-22T11:35:00;100598.25;;;33.45;100.00
19777;BME280;10047;42.490;26.012;2023-06-22T11:37:25;100597.34;;;33.30;100.00
19777;BME280;10047;42.490;26.012;2023-06-22T11:39:51;100555.91;;;32.14;100.00
19777;BME280;10047;42.490;26.012;2023-06-22T11:42:17;100563.13;;;32.28;100.00
19777;BME280;10047;42.490;26.012;2023-06-22T11:44:42;100587.34;;;33.93;100.00
19777;BME280;10047;42.490;26.012;2023-06-22T11:47:08;100538.38;;;32.54;100.00
19777;BME280;10047;42.490;26.012;2023-06-22T11:49:34;100615.13;;;33.05;100.00
19777;BME280;10047;42.490;26.012;2023-06-22T11:51:59;100605.75;;;31.92;100.00
19777;BME280;10047;42.490;26.012;2023-06-22T11:54:25;100633.00;;;31.58;100.00
19777;BME280;10047;42.490;26.012;2023-06-22T11:56:50;100588.34;;;31.25;100.00
19777;BME280;10047;42.490;26.012;2023-06-22T11:59:16;100643.34;;;31.60;100.00
19777;BME280;10047;42.490;26.012;2023-06-22T12:01:41;100599.47;;;31.11;100.00
19777;BME280;10047;42.490;26.012;2023-06-22T12:04:06;100585.16;;;31.05;100.00
19777;BME280;10047;42.490;26.012;2023-06-22T12:06:33;100647.50;;;31.21;100.00
19777;BME280;10047;42.490;26.012;2023-06-22T12:08:58;100630.56;;;31.23;100.00
19777;BME280;10047;42.490;26.012;2023-06-22T12:11:24;100604.69;;;30.43;100.00
19777;BME280;10047;42.490;26.012;2023-06-22T12:13:49;100657.09;;;30.78;100.00
19777;BME280;10047;42.490;26.012;2023-06-22T12:16:16;100656.88;;;30.90;100.00
19777;BME280;10047;42.490;26.012;2023-06-22T12:18:42;100596.81;;;30.43;100.00
19777;BME280;10047;42.490;26.012;2023-06-22T12:21:07;100640.63;;;30.94;100.00
19777;BME280;10047;42.490;26.012;2023-06-22T12:23:32;100598.84;;;31.17;100.00
19777;BME280;10047;42.490;26.012;2023-06-22T12:25:58;100633.78;;;31.01;100.00
19777;BME280;10047;42.490;26.012;2023-06-22T12:28:25;100623.28;;;30.75;100.00
19777;BME280;10047;42.490;26.012;2023-06-22T12:30:50;100604.63;;;31.28;100.00
19777;BME280;10047;42.490;26.012;2023-06-22T12:33:15;100523.19;;;31.93;100.00
19777;BME280;10047;42.490;26.012;2023-06-22T12:35:41;100577.47;;;32.81;100.00
19777;BME280;10047;42.490;26.012;2023-06-22T12:38:06;100554.88;;;32.31;100.00